Ludlow, Colorado
Current Conditions -  °F | °C
As of 9:54 AM on Friday 28 Nov 2014 (Local Time) from KTAD Reporting Station
Clear Clear  
Wind Chill: 55°   Ceiling: Unl
Heat Index: 55°   Visibility: 10mi
Dew Point: 21°   Wind: 6mph
Humidity: 27%   Direction: 300°WNW
Pressure: 30.05"   Gusts: NA
Location:  37.1661°N, 104.486°W
Report Text: KTAD 281654Z AUTO 30005KT 10SM CLR 13/M06 A3005 RMK AO2 SLP139 T01281061
Loading
Personal Weather Stations






























Interactive Weather Map New forecast layout! Learn more

10-Day Weather Forecast

Advertisements
Track Severe Weather on mobile